createdAt,value
2023-04-21T00:00:14.167Z,0.00
2023-04-21T00:01:14.153Z,0.00
2023-04-21T00:02:14.244Z,0.00
2023-04-21T00:03:14.304Z,0.00
2023-04-21T00:04:14.347Z,0.00
2023-04-21T00:05:14.447Z,0.00
2023-04-21T00:06:14.224Z,0.00
2023-04-21T00:07:14.234Z,0.00
2023-04-21T00:08:14.254Z,0.00
2023-04-21T00:09:14.267Z,0.00
2023-04-21T00:10:14.292Z,0.00
2023-04-21T00:11:14.296Z,0.00
2023-04-21T00:12:14.312Z,0.00
2023-04-21T00:13:14.348Z,0.00
2023-04-21T00:14:14.338Z,0.00
2023-04-21T00:15:14.353Z,0.00
2023-04-21T00:16:14.399Z,0.00
2023-04-21T00:17:14.383Z,0.00
2023-04-21T00:18:14.409Z,0.00
2023-04-21T00:19:14.411Z,0.00
2023-04-21T00:20:14.430Z,0.00
2023-04-21T00:21:14.442Z,0.00
2023-04-21T00:22:14.455Z,0.00
2023-04-21T00:23:14.476Z,0.00
2023-04-21T00:24:14.487Z,0.00
2023-04-21T00:25:14.502Z,0.00
2023-04-21T00:26:14.528Z,0.00
2023-04-21T00:27:14.532Z,0.00
2023-04-21T00:28:14.542Z,0.00
2023-04-21T00:29:14.563Z,0.00
2023-04-21T00:30:14.578Z,0.00
2023-04-21T00:31:14.626Z,0.00
2023-04-21T00:32:14.616Z,0.00
2023-04-21T00:33:14.622Z,0.00
2023-04-21T00:34:14.637Z,0.00
2023-04-21T00:35:14.652Z,0.00
2023-04-21T00:36:14.672Z,0.00
2023-04-21T00:37:14.679Z,0.00
2023-04-21T00:38:14.688Z,0.00
2023-04-21T00:39:14.705Z,0.00
2023-04-21T00:40:14.734Z,0.00
2023-04-21T00:41:14.732Z,0.00
2023-04-21T00:42:14.749Z,0.00
2023-04-21T00:43:14.767Z,0.00
2023-04-21T00:44:14.776Z,0.00
2023-04-21T00:45:14.800Z,0.00
2023-04-21T00:46:14.850Z,0.00
2023-04-21T00:47:14.820Z,0.00
2023-04-21T00:48:14.839Z,0.00
2023-04-21T00:49:14.862Z,0.00
2023-04-21T00:50:14.870Z,0.00
2023-04-21T00:51:14.884Z,0.00
2023-04-21T00:52:14.894Z,0.00
2023-04-21T00:53:14.910Z,0.00
2023-04-21T00:54:14.922Z,0.00
2023-04-21T00:55:14.938Z,0.00
2023-04-21T00:56:14.950Z,0.00
2023-04-21T00:57:14.964Z,0.00
2023-04-21T00:58:14.980Z,0.00
2023-04-21T00:59:14.993Z,0.00
2023-04-21T01:00:15.011Z,0.00
2023-04-21T01:01:15.137Z,0.00
2023-04-21T01:02:15.137Z,0.00
2023-04-21T01:03:15.172Z,0.00
2023-04-21T01:04:15.089Z,0.00
2023-04-21T01:05:15.084Z,0.00
2023-04-21T01:06:15.111Z,0.00
2023-04-21T01:07:15.114Z,0.00
2023-04-21T01:08:15.141Z,0.00
2023-04-21T01:09:15.142Z,0.00
2023-04-21T01:10:15.158Z,0.00
2023-04-21T01:11:15.170Z,0.00
2023-04-21T01:12:15.185Z,0.00
2023-04-21T01:13:15.198Z,0.00
2023-04-21T01:14:15.213Z,0.00
2023-04-21T01:15:15.240Z,0.00
2023-04-21T01:16:15.290Z,0.00
2023-04-21T01:17:15.263Z,0.00
2023-04-21T01:18:15.346Z,0.00
2023-04-21T01:19:15.284Z,0.00
2023-04-21T01:20:15.301Z,0.00
2023-04-21T01:21:15.326Z,0.00
2023-04-21T01:22:15.371Z,0.00
2023-04-21T01:23:15.342Z,0.00
2023-04-21T01:24:15.355Z,0.00
2023-04-21T01:25:15.377Z,0.00
2023-04-21T01:26:15.384Z,0.00
2023-04-21T01:27:15.398Z,0.00
2023-04-21T01:28:15.411Z,0.00
2023-04-21T01:29:15.429Z,0.00
2023-04-21T01:30:15.444Z,0.00
2023-04-21T01:31:15.455Z,0.00
2023-04-21T01:32:15.514Z,0.00
2023-04-21T01:33:15.551Z,0.00
2023-04-21T01:34:15.498Z,0.00
2023-04-21T01:35:15.513Z,0.00
2023-04-21T01:36:15.530Z,0.00
2023-04-21T01:37:15.541Z,0.00
2023-04-21T01:38:17.632Z,0.00
2023-04-21T01:39:15.572Z,0.00
2023-04-21T01:40:15.588Z,0.00
2023-04-21T01:41:15.598Z,0.00
2023-04-21T01:42:15.619Z,0.00
2023-04-21T01:43:15.625Z,0.00
2023-04-21T01:44:15.643Z,0.00
2023-04-21T01:45:15.659Z,0.00
2023-04-21T01:46:15.700Z,0.00
2023-04-21T01:47:15.688Z,0.00
2023-04-21T01:48:15.760Z,0.00
2023-04-21T01:49:15.728Z,0.00
2023-04-21T01:50:15.723Z,0.00
2023-04-21T01:51:15.741Z,0.00
2023-04-21T01:52:15.758Z,0.00
2023-04-21T01:53:15.775Z,0.00
2023-04-21T01:54:15.789Z,0.00
2023-04-21T01:55:15.798Z,0.00
2023-04-21T01:56:15.818Z,0.00
2023-04-21T01:57:15.878Z,0.00
2023-04-21T01:58:15.836Z,0.00
2023-04-21T01:59:15.858Z,0.00
2023-04-21T02:00:15.866Z,0.00
2023-04-21T02:01:15.897Z,0.00
2023-04-21T02:02:15.969Z,0.00
2023-04-21T02:03:16.027Z,0.00
2023-04-21T02:04:16.147Z,0.00
2023-04-21T02:05:15.939Z,0.00
2023-04-21T02:06:15.949Z,0.00
2023-04-21T02:07:15.962Z,0.00
2023-04-21T02:08:15.980Z,0.00
2023-04-21T02:09:16.071Z,0.00
2023-04-21T02:10:16.082Z,0.00
2023-04-21T02:11:16.033Z,0.00
2023-04-21T02:12:16.036Z,0.00
2023-04-21T02:13:16.054Z,0.00
2023-04-21T02:14:16.072Z,0.00
2023-04-21T02:15:16.079Z,0.00
2023-04-21T02:16:16.150Z,0.00
2023-04-21T02:17:16.099Z,0.00
2023-04-21T02:18:16.123Z,0.00
2023-04-21T02:19:16.224Z,0.00
2023-04-21T02:20:16.144Z,0.00
2023-04-21T02:21:16.159Z,0.00
2023-04-21T02:22:16.175Z,0.00
2023-04-21T02:23:16.184Z,0.00
2023-04-21T02:24:16.194Z,0.00
2023-04-21T02:25:16.209Z,0.00
2023-04-21T02:26:16.223Z,0.00
2023-04-21T02:27:16.234Z,0.00
2023-04-21T02:28:16.246Z,0.00
2023-04-21T02:29:16.317Z,0.00
2023-04-21T02:30:16.275Z,0.00
2023-04-21T02:31:16.300Z,0.00
2023-04-21T02:32:25.473Z,0.00
2023-04-21T02:33:16.409Z,0.00
2023-04-21T02:34:16.327Z,0.00
2023-04-21T02:35:16.345Z,0.00
2023-04-21T02:36:16.359Z,0.00
2023-04-21T02:37:16.369Z,0.00
2023-04-21T02:38:16.388Z,0.00
2023-04-21T02:39:16.523Z,0.00
2023-04-21T02:40:16.410Z,0.00
2023-04-21T02:41:16.422Z,0.00
2023-04-21T02:42:16.438Z,0.00
2023-04-21T02:43:16.449Z,0.00
2023-04-21T02:44:16.465Z,0.00
2023-04-21T02:45:16.486Z,0.00
2023-04-21T02:46:16.507Z,0.00
2023-04-21T02:47:16.528Z,0.00
2023-04-21T02:48:16.518Z,0.00
2023-04-21T02:49:16.630Z,0.00
2023-04-21T02:50:16.559Z,0.00
2023-04-21T02:51:16.559Z,0.00
2023-04-21T02:52:16.572Z,0.00
2023-04-21T02:53:16.589Z,0.00
2023-04-21T02:54:16.598Z,0.00
2023-04-21T02:55:16.621Z,0.00
2023-04-21T02:56:16.636Z,0.00
2023-04-21T02:57:16.644Z,0.00
2023-04-21T02:58:16.658Z,0.00
2023-04-21T02:59:16.835Z,0.00
2023-04-21T03:00:16.678Z,0.00
2023-04-21T03:01:16.840Z,0.00
2023-04-21T03:02:16.781Z,0.00
2023-04-21T03:03:16.888Z,0.00
2023-04-21T03:04:16.851Z,0.00
2023-04-21T03:05:16.749Z,0.00
2023-04-21T03:06:16.758Z,0.00
2023-04-21T03:07:16.775Z,0.00
2023-04-21T03:08:16.785Z,0.00
2023-04-21T03:09:16.885Z,0.00
2023-04-21T03:10:16.813Z,0.00
2023-04-21T03:11:16.847Z,0.00
2023-04-21T03:12:16.839Z,0.00
2023-04-21T03:13:16.854Z,0.00
2023-04-21T03:14:16.875Z,0.00
2023-04-21T03:15:16.923Z,0.00
2023-04-21T03:16:16.940Z,0.00
2023-04-21T03:17:16.908Z,0.00
2023-04-21T03:18:16.920Z,0.00
2023-04-21T03:19:16.979Z,0.00
2023-04-21T03:20:16.947Z,4.00
2023-04-21T03:21:16.958Z,4.00
2023-04-21T03:22:16.974Z,0.00
2023-04-21T03:23:17.002Z,0.00
2023-04-21T03:24:17.001Z,4.00
2023-04-21T03:25:17.015Z,4.00
2023-04-21T03:26:17.030Z,4.00
2023-04-21T03:27:17.038Z,8.00
2023-04-21T03:28:17.050Z,4.00
2023-04-21T03:29:17.286Z,4.00
2023-04-21T03:30:17.089Z,8.00
2023-04-21T03:31:17.089Z,12.00
2023-04-21T03:32:17.162Z,12.00
2023-04-21T03:33:17.119Z,12.00
2023-04-21T03:34:17.134Z,12.00
2023-04-21T03:35:17.155Z,16.00
2023-04-21T03:36:17.162Z,20.00
2023-04-21T03:37:17.172Z,20.00
2023-04-21T03:38:17.185Z,28.00
2023-04-21T03:39:20.110Z,28.00
2023-04-21T03:40:17.210Z,36.00
2023-04-21T03:41:17.224Z,36.00
2023-04-21T03:42:17.235Z,48.00
2023-04-21T03:43:17.256Z,52.00
2023-04-21T03:44:17.262Z,60.00
2023-04-21T03:45:17.311Z,68.00
2023-04-21T03:46:17.325Z,80.00
2023-04-21T03:47:17.301Z,88.00
2023-04-21T03:48:17.332Z,104.00
2023-04-21T03:49:17.329Z,116.00
2023-04-21T03:50:17.354Z,128.00
2023-04-21T03:51:17.372Z,140.00
2023-04-21T03:52:17.363Z,160.00
2023-04-21T03:53:17.381Z,176.00
2023-04-21T03:54:17.396Z,196.00
2023-04-21T03:55:17.402Z,216.00
2023-04-21T03:56:17.424Z,236.00
2023-04-21T03:57:17.434Z,256.00
2023-04-21T03:58:17.473Z,280.00
2023-04-21T03:59:17.705Z,308.00
2023-04-21T04:00:17.471Z,332.00
2023-04-21T04:01:17.494Z,360.00
2023-04-21T04:02:17.559Z,388.00
2023-04-21T04:03:18.315Z,420.00
2023-04-21T04:04:17.719Z,452.00
2023-04-21T04:05:17.576Z,488.00
2023-04-21T04:06:17.553Z,520.00
2023-04-21T04:07:17.614Z,556.00
2023-04-21T04:08:17.574Z,592.00
2023-04-21T04:09:17.736Z,636.00
2023-04-21T04:10:17.607Z,672.00
2023-04-21T04:11:17.612Z,712.00
2023-04-21T04:12:17.622Z,756.00
2023-04-21T04:13:17.640Z,804.00
2023-04-21T04:14:17.660Z,848.00
2023-04-21T04:15:17.664Z,896.00
2023-04-21T04:16:17.697Z,952.00
2023-04-21T04:17:17.695Z,1004.00
2023-04-21T04:18:17.704Z,1056.00
2023-04-21T04:19:17.994Z,1112.00
2023-04-21T04:20:17.730Z,1168.00
2023-04-21T04:21:17.744Z,1224.00
2023-04-21T04:22:17.761Z,1280.00
2023-04-21T04:23:17.771Z,1336.00
2023-04-21T04:24:17.781Z,1396.00
2023-04-21T04:25:17.819Z,1456.00
2023-04-21T04:26:17.812Z,1512.00
2023-04-21T04:27:17.817Z,1572.00
2023-04-21T04:28:17.835Z,1632.00
2023-04-21T04:29:18.133Z,1688.00
2023-04-21T04:30:17.862Z,1752.00
2023-04-21T04:31:17.901Z,1808.00
2023-04-21T04:32:17.968Z,1864.00
2023-04-21T04:33:17.911Z,1924.00
2023-04-21T04:34:17.968Z,1980.00
2023-04-21T04:35:17.945Z,2040.00
2023-04-21T04:36:17.950Z,2104.00
2023-04-21T04:37:17.960Z,2172.00
2023-04-21T04:38:17.970Z,2252.00
2023-04-21T04:39:18.162Z,2300.00
2023-04-21T04:40:17.995Z,2356.00
2023-04-21T04:41:18.001Z,2432.00
2023-04-21T04:42:18.015Z,2500.00
2023-04-21T04:43:18.025Z,2568.00
2023-04-21T04:44:18.362Z,2688.00
2023-04-21T04:45:18.052Z,2760.00
2023-04-21T04:46:18.077Z,2768.00
2023-04-21T04:47:18.127Z,2812.00
2023-04-21T04:48:18.094Z,2912.00
2023-04-21T04:49:18.105Z,3068.00
2023-04-21T04:50:18.121Z,3172.00
2023-04-21T04:51:18.142Z,3168.00
2023-04-21T04:52:18.152Z,3156.00
2023-04-21T04:53:18.159Z,3188.00
2023-04-21T04:54:18.407Z,3248.00
2023-04-21T04:55:18.179Z,3316.00
2023-04-21T04:56:18.196Z,3376.00
2023-04-21T04:57:18.225Z,3440.00
2023-04-21T04:58:18.227Z,3508.00
2023-04-21T04:59:18.239Z,3576.00
2023-04-21T05:00:18.256Z,3628.00
2023-04-21T05:01:18.401Z,3680.00
2023-04-21T05:02:18.316Z,3732.00
2023-04-21T05:03:18.507Z,3792.00
2023-04-21T05:04:18.525Z,3856.00
2023-04-21T05:05:18.321Z,3932.00
2023-04-21T05:06:18.333Z,4072.00
2023-04-21T05:07:18.353Z,4172.00
2023-04-21T05:08:18.409Z,4160.00
2023-04-21T05:09:18.372Z,4220.00
2023-04-21T05:10:18.384Z,4336.00
2023-04-21T05:11:18.397Z,4340.00
2023-04-21T05:12:18.421Z,4408.00
2023-04-21T05:13:18.425Z,4432.00
2023-04-21T05:14:18.671Z,4480.00
2023-04-21T05:15:18.454Z,4628.00
2023-04-21T05:16:18.491Z,4748.00
2023-04-21T05:17:18.489Z,4660.00
2023-04-21T05:18:18.491Z,4688.00
2023-04-21T05:19:18.819Z,4704.00
2023-04-21T05:20:18.519Z,4740.00
2023-04-21T05:21:18.532Z,4844.00
2023-04-21T05:22:18.571Z,4976.00
2023-04-21T05:23:18.557Z,5184.00
2023-04-21T05:24:18.790Z,5676.00
2023-04-21T05:25:18.585Z,5464.00
2023-04-21T05:26:18.598Z,5224.00
2023-04-21T05:27:18.641Z,5200.00
2023-04-21T05:28:18.625Z,5136.00
2023-04-21T05:29:18.639Z,5256.00
2023-04-21T05:30:18.660Z,5348.00
2023-04-21T05:31:18.667Z,5352.00
2023-04-21T05:32:18.835Z,5336.00
2023-04-21T05:33:18.783Z,5392.00
2023-04-21T05:34:18.965Z,5488.00
2023-04-21T05:35:18.728Z,5580.00
2023-04-21T05:36:18.744Z,5584.00
2023-04-21T05:37:18.749Z,5564.00
2023-04-21T05:38:18.763Z,5664.00
2023-04-21T05:39:18.774Z,5704.00
2023-04-21T05:40:18.789Z,5728.00
2023-04-21T05:41:18.812Z,5748.00
2023-04-21T05:42:18.836Z,6016.00
2023-04-21T05:43:18.833Z,6600.00
2023-04-21T05:44:19.060Z,6660.00
2023-04-21T05:45:18.859Z,6540.00
2023-04-21T05:46:18.973Z,6724.00
2023-04-21T05:47:18.883Z,7420.00
2023-04-21T05:48:18.963Z,7584.00
2023-04-21T05:49:18.914Z,7644.00
2023-04-21T05:50:18.934Z,6932.00
2023-04-21T05:51:18.950Z,6840.00
2023-04-21T05:52:18.957Z,6932.00
2023-04-21T05:53:18.982Z,6688.00
2023-04-21T05:54:19.163Z,6996.00
2023-04-21T05:55:19.004Z,7156.00
2023-04-21T05:56:19.013Z,6876.00
2023-04-21T05:57:19.027Z,8460.00
2023-04-21T05:58:19.040Z,8620.00
2023-04-21T05:59:19.053Z,8696.00
2023-04-21T06:00:19.064Z,10284.00
2023-04-21T06:01:19.088Z,10988.00
2023-04-21T06:02:19.145Z,11344.00
2023-04-21T06:03:19.265Z,11448.00
2023-04-21T06:04:19.590Z,11280.00
2023-04-21T06:05:19.168Z,11304.00
2023-04-21T06:06:19.158Z,14372.00
2023-04-21T06:07:19.168Z,12952.00
2023-04-21T06:08:19.182Z,9940.00
2023-04-21T06:09:19.202Z,11284.00
2023-04-21T06:10:19.214Z,11952.00
2023-04-21T06:11:19.225Z,10812.00
2023-04-21T06:12:19.241Z,11608.00
2023-04-21T06:13:19.260Z,12496.00
2023-04-21T06:14:19.505Z,14464.00
2023-04-21T06:15:19.283Z,15616.00
2023-04-21T06:16:19.354Z,12684.00
2023-04-21T06:17:19.318Z,10676.00
2023-04-21T06:18:19.328Z,12932.00
2023-04-21T06:19:19.346Z,14876.00
2023-04-21T06:20:19.361Z,15548.00
2023-04-21T06:21:19.382Z,18304.00
2023-04-21T06:22:19.390Z,21760.00
2023-04-21T06:23:19.434Z,27520.00
2023-04-21T06:24:19.643Z,28736.00
2023-04-21T06:25:19.446Z,29120.00
2023-04-21T06:26:19.456Z,30752.00
2023-04-21T06:27:19.472Z,31424.00
2023-04-21T06:28:19.485Z,31040.00
2023-04-21T06:29:19.516Z,30144.00
2023-04-21T06:30:19.516Z,30080.00
2023-04-21T06:31:19.587Z,30400.00
2023-04-21T06:32:19.552Z,30464.00
2023-04-21T06:33:19.584Z,30368.00
2023-04-21T06:34:19.902Z,31104.00
2023-04-21T06:35:19.619Z,31296.00
2023-04-21T06:36:19.622Z,31936.00
2023-04-21T06:37:19.639Z,31648.00
2023-04-21T06:38:19.665Z,32800.00
2023-04-21T06:39:19.675Z,33248.00
2023-04-21T06:40:19.704Z,33216.00
2023-04-21T06:41:19.711Z,32928.00
2023-04-21T06:42:19.728Z,33216.00
2023-04-21T06:43:19.745Z,32992.00
2023-04-21T06:44:19.904Z,33408.00
2023-04-21T06:45:19.782Z,34080.00
2023-04-21T06:46:19.830Z,34208.00
2023-04-21T06:47:19.876Z,34368.00
2023-04-21T06:48:19.846Z,33152.00
2023-04-21T06:49:20.242Z,33152.00
2023-04-21T06:50:19.879Z,32160.00
2023-04-21T06:51:19.901Z,32768.00
2023-04-21T06:52:20.319Z,33088.00
2023-04-21T06:53:19.934Z,32128.00
2023-04-21T06:54:19.955Z,30304.00
2023-04-21T06:55:19.975Z,30112.00
2023-04-21T06:56:19.992Z,27264.00
2023-04-21T06:57:20.017Z,25216.00
2023-04-21T06:58:21.333Z,25280.00
2023-04-21T06:59:20.473Z,25376.00
2023-04-21T07:00:20.071Z,25344.00
2023-04-21T07:01:20.125Z,25216.00
2023-04-21T07:02:20.160Z,24736.00
2023-04-21T07:03:20.271Z,24448.00
2023-04-21T07:04:20.195Z,24608.00
2023-04-21T07:05:20.187Z,24608.00
2023-04-21T07:06:20.209Z,24704.00
2023-04-21T07:07:20.217Z,24800.00
2023-04-21T07:08:20.238Z,24992.00
2023-04-21T07:09:20.438Z,25184.00
2023-04-21T07:10:20.282Z,25280.00
2023-04-21T07:11:20.302Z,25312.00
2023-04-21T07:12:20.323Z,25504.00
2023-04-21T07:13:20.355Z,25600.00
2023-04-21T07:14:20.367Z,25792.00
2023-04-21T07:15:20.394Z,25984.00
2023-04-21T07:16:20.456Z,26144.00
2023-04-21T07:17:20.432Z,26240.00
2023-04-21T07:18:20.454Z,26464.00
2023-04-21T07:19:20.746Z,26624.00
2023-04-21T07:20:20.502Z,26816.00
2023-04-21T07:21:20.516Z,27104.00
2023-04-21T07:22:20.539Z,27296.00
2023-04-21T07:23:20.562Z,27392.00
2023-04-21T07:24:20.578Z,27680.00
2023-04-21T07:25:20.612Z,27744.00
2023-04-21T07:26:20.624Z,27968.00
2023-04-21T07:27:20.641Z,28256.00
2023-04-21T07:28:20.667Z,28448.00
2023-04-21T07:29:20.899Z,28672.00
2023-04-21T07:30:20.707Z,28864.00
2023-04-21T07:31:20.787Z,28992.00
2023-04-21T07:32:20.784Z,29344.00
2023-04-21T07:33:20.770Z,29472.00
2023-04-21T07:34:20.798Z,29728.00
2023-04-21T07:35:20.821Z,30048.00
2023-04-21T07:36:20.942Z,30336.00
2023-04-21T07:37:20.863Z,30752.00
2023-04-21T07:38:20.887Z,30912.00
2023-04-21T07:39:21.242Z,31104.00
2023-04-21T07:40:20.934Z,31104.00
2023-04-21T07:41:20.958Z,31232.00
2023-04-21T07:42:20.969Z,31584.00
2023-04-21T07:43:20.993Z,31776.00
2023-04-21T07:44:21.019Z,32064.00
2023-04-21T07:45:21.046Z,32224.00
2023-04-21T07:46:21.092Z,32320.00
2023-04-21T07:47:21.081Z,32672.00
2023-04-21T07:48:21.103Z,32896.00
2023-04-21T07:49:21.362Z,32992.00
2023-04-21T07:50:21.154Z,33280.00
2023-04-21T07:51:21.217Z,33568.00
2023-04-21T07:52:21.201Z,33760.00
2023-04-21T07:53:21.216Z,33888.00
2023-04-21T07:54:21.247Z,34144.00
2023-04-21T07:55:21.263Z,34272.00
2023-04-21T07:56:21.286Z,34368.00
2023-04-21T07:57:21.316Z,34624.00
2023-04-21T07:58:21.346Z,35008.00
2023-04-21T07:59:21.460Z,35328.00
2023-04-21T08:00:21.384Z,35392.00
2023-04-21T08:01:21.513Z,35360.00
2023-04-21T08:02:21.527Z,32416.00
2023-04-21T08:03:24.270Z,20960.00
2023-04-21T08:04:21.745Z,10588.00
2023-04-21T08:05:21.576Z,9024.00
2023-04-21T08:06:21.666Z,9028.00
2023-04-21T08:07:21.731Z,9024.00
2023-04-21T08:08:21.566Z,9016.00
2023-04-21T08:09:21.816Z,9028.00
2023-04-21T08:10:21.616Z,9040.00
2023-04-21T08:11:21.636Z,9068.00
2023-04-21T08:12:21.689Z,9096.00
2023-04-21T08:13:21.682Z,9112.00
2023-04-21T08:14:21.865Z,9116.00
2023-04-21T08:15:21.733Z,9112.00
2023-04-21T08:16:21.844Z,9108.00
2023-04-21T08:17:21.787Z,9092.00
2023-04-21T08:18:22.645Z,9076.00
2023-04-21T08:19:21.980Z,9080.00
2023-04-21T08:20:21.836Z,9080.00
2023-04-21T08:21:21.853Z,9048.00
2023-04-21T08:22:21.922Z,9048.00
2023-04-21T08:23:22.027Z,9064.00
2023-04-21T08:24:22.102Z,9088.00
2023-04-21T08:25:21.932Z,9108.00
2023-04-21T08:26:21.959Z,9128.00
2023-04-21T08:27:21.975Z,9156.00
2023-04-21T08:28:21.992Z,9180.00
2023-04-21T08:29:22.012Z,9184.00
2023-04-21T08:30:22.036Z,9196.00
2023-04-21T08:31:22.147Z,9212.00
2023-04-21T08:32:22.078Z,9232.00
2023-04-21T08:33:22.136Z,9244.00
2023-04-21T08:34:23.614Z,9236.00
2023-04-21T08:35:22.150Z,9240.00
2023-04-21T08:36:28.926Z,9252.00
2023-04-21T08:37:22.182Z,9284.00
2023-04-21T08:38:22.196Z,9272.00
2023-04-21T08:39:22.421Z,9280.00
2023-04-21T08:40:22.308Z,9284.00
2023-04-21T08:41:22.263Z,9300.00
2023-04-21T08:42:22.276Z,9300.00
2023-04-21T08:43:22.297Z,9284.00
2023-04-21T08:44:22.394Z,9256.00
2023-04-21T08:45:22.339Z,9260.00
2023-04-21T08:46:22.750Z,9260.00
2023-04-21T08:47:22.425Z,9252.00
2023-04-21T08:48:22.397Z,9260.00
2023-04-21T08:49:22.508Z,9276.00
2023-04-21T08:50:22.463Z,9284.00
2023-04-21T08:51:22.469Z,9276.00
2023-04-21T08:52:22.491Z,9244.00
2023-04-21T08:53:22.496Z,9264.00
2023-04-21T08:54:22.527Z,9276.00
2023-04-21T08:55:22.535Z,9288.00
2023-04-21T08:56:22.556Z,9292.00
2023-04-21T08:57:22.575Z,9296.00
2023-04-21T08:58:22.603Z,9292.00
2023-04-21T08:59:22.737Z,9324.00
2023-04-21T09:00:22.670Z,9360.00
2023-04-21T09:01:22.803Z,9372.00
2023-04-21T09:02:22.792Z,9396.00
2023-04-21T09:03:25.943Z,9432.00
2023-04-21T09:04:22.952Z,9444.00
2023-04-21T09:05:22.980Z,9456.00
2023-04-21T09:06:22.931Z,9496.00
2023-04-21T09:07:22.773Z,9500.00
2023-04-21T09:08:22.792Z,9528.00
2023-04-21T09:09:22.816Z,9540.00
2023-04-21T09:10:22.841Z,9580.00
2023-04-21T09:11:22.856Z,9592.00
2023-04-21T09:12:22.874Z,9592.00
2023-04-21T09:13:22.894Z,9600.00
2023-04-21T09:14:22.912Z,9632.00
2023-04-21T09:15:22.945Z,9660.00
2023-04-21T09:16:23.059Z,9664.00
2023-04-21T09:17:23.028Z,9680.00
2023-04-21T09:18:22.991Z,9700.00
2023-04-21T09:19:23.012Z,9732.00
2023-04-21T09:20:23.046Z,9768.00
2023-04-21T09:21:23.060Z,9808.00
2023-04-21T09:22:23.073Z,9812.00
2023-04-21T09:23:23.095Z,9792.00
2023-04-21T09:24:23.116Z,9836.00
2023-04-21T09:25:23.150Z,9884.00
2023-04-21T09:26:23.362Z,9888.00
2023-04-21T09:27:23.244Z,9840.00
2023-04-21T09:28:23.195Z,9808.00
2023-04-21T09:29:23.212Z,9800.00
2023-04-21T09:30:23.231Z,9792.00
2023-04-21T09:31:23.307Z,9760.00
2023-04-21T09:32:23.334Z,9756.00
2023-04-21T09:33:30.723Z,9752.00
2023-04-21T09:34:23.313Z,9744.00
2023-04-21T09:35:23.341Z,9712.00
2023-04-21T09:36:23.350Z,9696.00
2023-04-21T09:37:23.378Z,9676.00
2023-04-21T09:38:23.413Z,9680.00
2023-04-21T09:39:38.264Z,9680.00
2023-04-21T09:40:23.436Z,9700.00
2023-04-21T09:41:23.458Z,9740.00
2023-04-21T09:42:23.480Z,9764.00
2023-04-21T09:43:23.494Z,9784.00
2023-04-21T09:44:23.886Z,9760.00
2023-04-21T09:45:32.882Z,9772.00
2023-04-21T09:46:23.602Z,9812.00
2023-04-21T09:47:23.635Z,9872.00
2023-04-21T09:48:23.598Z,9932.00
2023-04-21T09:49:23.617Z,9964.00
2023-04-21T09:50:54.430Z,9968.00
2023-04-21T09:51:32.736Z,9956.00
2023-04-21T09:52:23.684Z,9928.00
2023-04-21T09:53:23.702Z,9912.00
2023-04-21T09:55:23.749Z,9980.00
2023-04-21T09:56:23.775Z,9988.00
2023-04-21T09:57:23.783Z,10000.00
2023-04-21T09:58:23.800Z,10016.00
2023-04-21T09:59:23.887Z,10056.00
2023-04-21T10:00:23.840Z,10104.00
2023-04-21T10:01:23.873Z,10232.00
2023-04-21T10:02:24.172Z,10360.00
2023-04-21T10:03:23.965Z,10484.00
2023-04-21T10:04:24.348Z,10664.00
2023-04-21T10:05:24.002Z,10784.00
2023-04-21T10:06:23.963Z,11144.00
2023-04-21T10:07:23.988Z,12900.00
2023-04-21T10:08:24.009Z,20096.00
2023-04-21T10:09:24.034Z,33632.00
2023-04-21T10:10:24.055Z,45632.00
2023-04-21T10:11:24.070Z,47616.00
2023-04-21T10:12:24.093Z,37344.00
2023-04-21T10:13:24.111Z,27840.00
2023-04-21T10:14:24.138Z,32416.00
2023-04-21T10:15:24.162Z,44800.00
2023-04-21T10:16:24.201Z,50208.00
2023-04-21T10:17:24.220Z,44512.00
2023-04-21T10:18:24.223Z,32448.00
2023-04-21T10:19:24.249Z,28736.00
2023-04-21T10:20:24.275Z,39360.00
2023-04-21T10:21:24.321Z,48832.00
2023-04-21T10:22:24.319Z,45504.00
2023-04-21T10:23:24.347Z,31808.00
2023-04-21T10:24:24.368Z,18528.00
2023-04-21T10:25:24.390Z,16532.00
2023-04-21T10:26:24.414Z,28128.00
2023-04-21T10:27:24.438Z,43520.00
2023-04-21T10:28:24.466Z,51520.00
2023-04-21T10:29:24.488Z,52832.00
2023-04-21T10:30:24.546Z,53600.00
2023-04-21T10:31:24.574Z,54080.00
2023-04-21T10:32:24.573Z,53888.00
2023-04-21T10:33:24.587Z,53920.00
2023-04-21T10:34:24.616Z,54112.00
2023-04-21T10:35:24.651Z,53888.00
2023-04-21T10:36:24.667Z,53888.00
2023-04-21T10:37:24.696Z,53856.00
2023-04-21T10:38:24.729Z,54080.00
2023-04-21T10:39:24.750Z,53600.00
2023-04-21T10:40:36.379Z,53792.00
2023-04-21T10:41:24.803Z,53792.00
2023-04-21T10:42:24.828Z,54016.00
2023-04-21T10:43:24.858Z,53856.00
2023-04-21T10:44:24.884Z,54080.00
2023-04-21T10:45:24.914Z,53440.00
2023-04-21T10:46:24.985Z,53952.00
2023-04-21T10:47:25.043Z,53696.00
2023-04-21T10:48:25.001Z,53728.00
2023-04-21T10:49:25.031Z,53632.00
2023-04-21T10:50:25.245Z,53504.00
2023-04-21T10:51:25.089Z,53888.00
2023-04-21T10:52:25.123Z,54016.00
2023-04-21T10:53:25.150Z,53984.00
2023-04-21T10:54:25.187Z,53888.00
2023-04-21T10:55:25.224Z,53856.00
2023-04-21T10:56:25.241Z,53728.00
2023-04-21T10:57:25.272Z,54144.00
2023-04-21T10:58:25.301Z,53760.00
2023-04-21T10:59:25.333Z,53440.00
2023-04-21T11:00:25.365Z,53024.00
2023-04-21T11:01:25.427Z,52768.00
2023-04-21T11:02:25.535Z,53600.00
2023-04-21T11:03:25.691Z,52704.00
2023-04-21T11:04:26.195Z,52768.00
2023-04-21T11:05:25.519Z,53440.00
2023-04-21T11:06:25.546Z,53504.00
2023-04-21T11:07:25.584Z,53472.00
2023-04-21T11:08:25.612Z,54080.00
2023-04-21T11:09:25.660Z,53920.00
2023-04-21T11:10:25.674Z,53312.00
2023-04-21T11:11:25.715Z,53536.00
2023-04-21T11:12:25.743Z,53312.00
2023-04-21T11:13:25.764Z,50816.00
2023-04-21T11:14:25.797Z,52064.00
2023-04-21T11:15:25.832Z,52448.00
2023-04-21T11:16:25.893Z,52256.00
2023-04-21T11:17:25.918Z,51680.00
2023-04-21T11:18:25.932Z,52800.00
2023-04-21T11:19:25.959Z,54432.00
2023-04-21T11:20:25.991Z,8800.00
2023-04-21T11:21:26.025Z,9936.00
2023-04-21T11:22:26.065Z,35744.00
2023-04-21T11:23:26.087Z,55936.00
2023-04-21T11:24:26.119Z,54592.00
2023-04-21T11:25:26.148Z,54144.00
2023-04-21T11:26:26.191Z,53248.00
2023-04-21T11:27:26.212Z,40320.00
2023-04-21T11:28:26.242Z,53280.00
2023-04-21T11:29:26.269Z,53344.00
2023-04-21T11:30:26.309Z,52416.00
2023-04-21T11:31:26.367Z,52928.00
2023-04-21T11:32:26.366Z,50880.00
2023-04-21T11:33:26.399Z,54592.00
2023-04-21T11:34:26.438Z,13688.00
2023-04-21T11:35:26.458Z,54464.00
2023-04-21T11:36:26.490Z,52864.00
2023-04-21T11:37:26.525Z,52256.00
2023-04-21T11:38:26.572Z,52544.00
2023-04-21T11:39:26.590Z,51648.00
2023-04-21T11:40:26.612Z,41824.00
2023-04-21T11:41:26.644Z,52256.00
2023-04-21T11:42:26.672Z,52768.00
2023-04-21T11:43:26.710Z,52896.00
2023-04-21T11:44:26.739Z,53088.00
2023-04-21T11:45:26.768Z,54240.00
2023-04-21T11:46:26.891Z,53504.00
2023-04-21T11:47:27.051Z,52672.00
2023-04-21T11:48:26.862Z,52448.00
2023-04-21T11:49:26.893Z,52640.00
2023-04-21T11:50:26.929Z,52448.00
2023-04-21T11:51:26.954Z,52448.00
2023-04-21T11:52:26.989Z,52160.00
2023-04-21T11:53:27.018Z,51616.00
2023-04-21T11:54:27.051Z,50272.00
2023-04-21T11:55:27.078Z,50720.00
2023-04-21T11:56:27.111Z,51040.00
2023-04-21T11:57:27.137Z,50784.00
2023-04-21T11:58:27.185Z,51136.00
2023-04-21T11:59:27.201Z,49216.00
2023-04-21T12:00:27.234Z,49952.00
2023-04-21T12:01:27.276Z,48800.00
2023-04-21T12:02:27.422Z,49152.00
2023-04-21T12:03:27.491Z,47296.00
2023-04-21T12:04:27.516Z,46688.00
2023-04-21T12:05:27.400Z,48384.00
2023-04-21T12:06:27.469Z,46048.00
2023-04-21T12:07:27.455Z,47104.00
2023-04-21T12:08:27.483Z,46464.00
2023-04-21T12:09:27.514Z,47104.00
2023-04-21T12:10:27.549Z,45728.00
2023-04-21T12:11:27.583Z,47808.00
2023-04-21T12:12:27.621Z,9304.00
2023-04-21T12:13:27.645Z,8880.00
2023-04-21T12:14:27.679Z,9972.00
2023-04-21T12:15:27.720Z,9276.00
2023-04-21T12:16:27.771Z,44928.00
2023-04-21T12:17:27.778Z,50144.00
2023-04-21T12:18:27.794Z,48064.00
2023-04-21T12:19:27.829Z,30752.00